Time;durP1;ratioP1;P1;durP2;ratioP2;P2;SDS_P1;SDS_P2;PMS_P1;PMS_P2;Temp;Humidity;BMP_temperature;BMP_pressure;BME280_temperature;BME280_humidity;BME280_pressure;Samples;Min_cycle;Max_cycle;Signal;HPM_P1;HPM_P2
2021/12/18 00:00:24;;;;;;;3.75;3.62;;;;;;;4.25;100.00;103381.47;4347876;32;20560;-74
2021/12/18 00:02:49;;;;;;;3.40;3.30;;;;;;;5.21;100.00;103526.97;4352106;32;20092;-74
2021/12/18 00:05:15;;;;;;;4.47;4.05;;;;;;;5.22;100.00;103526.12;4354031;32;20081;-74
2021/12/18 00:07:40;;;;;;;3.30;3.20;;;;;;;5.13;100.00;103506.03;4352920;32;20616;-74
2021/12/18 00:10:06;;;;;;;4.75;4.55;;;;;;;4.65;100.00;103428.03;4352467;32;20385;-73
2021/12/18 00:12:31;;;;;;;4.05;3.85;;;;;;;4.79;100.00;103462.97;4364743;32;20184;-73
2021/12/18 00:14:57;;;;;;;4.57;4.37;;;;;;;5.20;100.00;103523.50;4351000;32;20081;-73
2021/12/18 00:17:22;;;;;;;4.22;4.03;;;;;;;5.15;100.00;103516.47;4349350;32;20165;-74
2021/12/18 00:19:47;;;;;;;3.70;3.60;;;;;;;5.08;100.00;103507.69;4355030;32;20836;-74
2021/12/18 00:22:13;;;;;;;3.70;3.50;;;;;;;5.13;100.00;103525.97;4347698;32;20277;-74
2021/12/18 00:24:38;;;;;;;3.72;3.53;;;;;;;5.06;100.00;103522.41;4342413;32;21154;-73
2021/12/18 00:27:04;;;;;;;4.57;4.37;;;;;;;5.01;100.00;103516.22;4346891;32;20089;-74
2021/12/18 00:29:29;;;;;;;3.92;3.72;;;;;;;5.07;100.00;103526.78;4352138;32;20078;-74
2021/12/18 00:31:54;;;;;;;4.50;4.22;;;;;;;4.98;100.00;103506.66;4348124;32;20081;-73
2021/12/18 00:34:20;;;;;;;3.37;3.28;;;;;;;5.04;100.00;103523.25;4338601;32;20136;-73
2021/12/18 00:36:45;;;;;;;3.90;3.70;;;;;;;5.05;100.00;103522.38;4353918;32;20738;-74
2021/12/18 00:39:12;;;;;;;5.37;4.90;;;;;;;4.78;100.00;103472.50;4348238;32;20128;-72
2021/12/18 00:41:59;;;;;;;3.70;3.53;;;;;;;4.06;100.00;103336.06;4345149;32;20206;-74
2021/12/18 00:44:22;;;;;;;3.80;3.60;;;;;;;4.87;100.00;103465.69;4358455;32;20562;-73
2021/12/18 00:46:48;;;;;;;3.53;3.42;;;;;;;5.08;100.00;103499.00;4344811;32;20073;-73
2021/12/18 00:49:15;;;;;;;4.47;4.28;;;;;;;5.19;100.00;103519.16;4347378;32;20814;-74
2021/12/18 00:51:41;;;;;;;4.00;3.80;;;;;;;5.09;100.00;103496.44;4352677;32;20084;-73
2021/12/18 00:54:06;;;;;;;5.05;4.85;;;;;;;5.24;100.00;103521.81;4346720;32;20061;-72
2021/12/18 00:56:32;;;;;;;4.18;3.97;;;;;;;4.84;100.00;103450.91;4346649;32;20085;-72
2021/12/18 00:58:57;;;;;;;4.47;4.28;;;;;;;5.03;100.00;103475.47;4338464;32;20089;-73
2021/12/18 01:01:26;;;;;;;3.87;3.67;;;;;;;5.31;100.00;103509.75;4345454;32;20070;-74
2021/12/18 01:03:51;;;;;;;4.18;3.97;;;;;;;4.37;100.00;103350.47;4346093;32;20086;-73
2021/12/18 01:06:18;;;;;;;3.60;3.50;;;;;;;5.34;100.00;103517.63;4344486;32;20097;-72
2021/12/18 01:08:43;;;;;;;3.90;3.70;;;;;;;5.33;100.00;103510.66;4372798;32;20097;-74
2021/12/18 01:14:37;;;;;;;3.75;3.55;;;;;;;5.23;100.00;103491.41;4372053;32;20087;-74
2021/12/18 01:16:40;;;;;;;3.97;3.78;;;;;;;4.64;100.00;103389.91;4345534;32;20066;-74
2021/12/18 01:24:46;;;;;;;3.42;3.33;;;;;;;5.16;100.00;103434.91;4335813;32;20650;-73
2021/12/18 01:27:12;;;;;;;4.30;4.10;;;;;;;5.50;100.00;103492.69;4347839;32;20327;-74
2021/12/18 01:29:37;;;;;;;3.20;3.10;;;;;;;5.67;100.00;103521.56;4342233;32;20542;-73
2021/12/18 01:32:03;;;;;;;4.62;4.43;;;;;;;5.53;100.00;103490.09;4346973;32;20434;-71
2021/12/18 01:34:28;;;;;;;3.90;3.70;;;;;;;5.33;100.00;103455.97;4334548;32;20595;-73
2021/12/18 01:36:54;;;;;;;3.20;3.10;;;;;;;5.65;100.00;103515.47;4336240;32;20152;-73
2021/12/18 01:39:19;;;;;;;3.60;3.50;;;;;;;5.66;100.00;103514.63;4355946;32;20070;-74
2021/12/18 01:42:18;;;;;;;3.40;3.30;;;;;;;5.39;100.00;103485.59;4364768;32;20121;-74
2021/12/18 01:52:53;;;;;;;3.35;3.22;;;;;;;5.68;100.00;103508.56;4363081;32;25870;-75
2021/12/18 01:55:20;;;;;;;3.40;3.30;;;;;;;5.62;100.00;103499.81;4349940;32;20074;-73
2021/12/18 01:57:45;;;;;;;3.40;3.30;;;;;;;5.71;100.00;103503.41;4340478;32;20072;-74
2021/12/18 02:00:17;;;;;;;3.28;3.17;;;;;;;5.39;100.00;103445.62;4351215;32;20078;-74
2021/12/18 02:02:43;;;;;;;3.45;3.35;;;;;;;5.74;100.00;103510.38;4341037;32;20636;-74
2021/12/18 02:05:08;;;;;;;5.20;5.00;;;;;;;5.72;100.00;103502.53;4338882;32;20165;-75
2021/12/18 02:07:33;;;;;;;3.30;3.20;;;;;;;5.38;100.00;103443.91;4351239;32;20451;-75
2021/12/18 02:10:06;;;;;;;4.95;4.75;;;;;;;5.74;100.00;103505.16;4342247;32;20124;-74
2021/12/18 02:20:54;;;;;;;4.37;4.07;;;;;;;5.77;100.00;103499.97;4350264;32;20494;-73
2021/12/18 02:23:20;;;;;;;4.12;3.92;;;;;;;5.64;100.00;103479.84;4351709;32;20090;-74
2021/12/18 02:25:45;;;;;;;3.30;3.20;;;;;;;5.77;100.00;103492.16;4350999;32;20588;-75
2021/12/18 02:28:18;;;;;;;4.40;4.20;;;;;;;5.74;100.00;103500.84;4348484;32;20240;-74
2021/12/18 02:30:44;;;;;;;5.47;4.25;;;;;;;5.74;100.00;103498.22;4344787;32;20119;-74
2021/12/18 02:33:10;;;;;;;6.62;6.30;;;;;;;5.50;100.00;103461.44;4346619;32;20555;-74
2021/12/18 02:35:38;;;;;;;3.58;3.47;;;;;;;5.55;100.00;103470.16;4346470;32;20062;-74
2021/12/18 02:38:13;;;;;;;4.93;4.72;;;;;;;5.68;100.00;103485.13;4328279;32;20066;-74
2021/12/18 02:43:29;;;;;;;3.22;3.12;;;;;;;5.76;100.00;103496.50;4344799;32;20112;-73
2021/12/18 02:45:58;;;;;;;3.65;3.50;;;;;;;5.76;100.00;103498.25;4348834;32;20084;-74
2021/12/18 02:48:24;;;;;;;3.50;3.30;;;;;;;5.76;100.00;103493.03;4346864;32;20662;-73
2021/12/18 02:50:49;;;;;;;3.30;3.20;;;;;;;5.65;100.00;103481.59;4343379;32;20081;-73
2021/12/18 02:53:15;;;;;;;3.40;3.30;;;;;;;5.74;100.00;103486.94;4363918;32;20161;-73
2021/12/18 02:55:40;;;;;;;3.30;3.20;;;;;;;5.74;100.00;103489.53;4352532;32;20094;-73
2021/12/18 02:58:05;;;;;;;5.78;5.47;;;;;;;4.60;100.00;103295.34;4334298;32;20136;-74
2021/12/18 03:00:31;;;;;;;3.20;3.10;;;;;;;5.58;100.00;103468.50;4355114;32;20681;-73
2021/12/18 03:02:57;;;;;;;15.68;4.28;;;;;;;5.69;100.00;103489.50;4344911;32;20079;-72
2021/12/18 03:05:32;;;;;;;3.22;3.12;;;;;;;5.32;100.00;103416.06;4352480;32;20093;-73
2021/12/18 03:08:08;;;;;;;4.47;4.28;;;;;;;5.67;100.00;103475.53;4350388;32;20078;-72
2021/12/18 03:22:27;;;;;;;3.40;3.30;;;;;;;5.04;100.00;103357.53;4351211;32;20073;-74
2021/12/18 03:26:54;;;;;;;3.55;3.42;;;;;;;5.74;100.00;103473.91;4349947;32;20599;-73
2021/12/18 03:29:19;;;;;;;4.00;3.80;;;;;;;5.73;100.00;103464.31;4353507;32;20066;-74
2021/12/18 03:32:19;;;;;;;9.82;9.32;;;;;;;5.74;100.00;103463.47;4314439;32;20264;-72
2021/12/18 03:34:45;;;;;;;3.30;3.20;;;;;;;5.75;100.00;103462.59;4348279;32;20065;-74
2021/12/18 03:37:10;;;;;;;4.03;3.83;;;;;;;5.50;100.00;103415.41;4352628;32;20216;-73
2021/12/18 03:39:36;;;;;;;3.45;3.35;;;;;;;5.78;100.00;103457.44;4350255;32;20611;-73
2021/12/18 03:42:04;;;;;;;5.00;4.80;;;;;;;5.77;100.00;103456.59;4360770;32;20293;-74
2021/12/18 03:44:30;;;;;;;3.30;3.20;;;;;;;5.65;100.00;103432.97;4353751;32;20132;-73
2021/12/18 03:46:55;;;;;;;3.30;3.20;;;;;;;4.90;100.00;103294.88;4354370;32;20078;-74
2021/12/18 03:49:21;;;;;;;3.30;3.20;;;;;;;5.79;100.00;103446.16;4352856;32;20898;-73
2021/12/18 03:51:46;;;;;;;3.22;3.12;;;;;;;5.77;100.00;103453.97;4354418;32;20057;-73
2021/12/18 03:54:11;;;;;;;3.92;3.75;;;;;;;5.23;100.00;103360.38;4352013;32;20583;-73
2021/12/18 03:56:37;;;;;;;4.15;3.95;;;;;;;5.79;100.00;103447.06;4348631;32;20146;-73
2021/12/18 03:59:02;;;;;;;20.10;5.28;;;;;;;5.80;100.00;103448.78;4341315;32;20544;-73
2021/12/18 04:01:28;;;;;;;3.62;3.33;;;;;;;5.77;100.00;103448.78;4353582;32;20208;-73
2021/12/18 04:03:53;;;;;;;3.80;3.67;;;;;;;5.80;100.00;103456.59;4343313;32;20483;-73
2021/12/18 04:06:18;;;;;;;3.30;3.20;;;;;;;5.79;100.00;103456.56;4363852;32;20200;-72
2021/12/18 04:08:44;;;;;;;3.33;3.22;;;;;;;5.79;100.00;103473.13;4346973;32;20107;-73
2021/12/18 04:11:09;;;;;;;5.45;5.15;;;;;;;5.46;100.00;103424.03;4353152;32;20484;-72
2021/12/18 04:13:35;;;;;;;3.45;3.35;;;;;;;5.82;100.00;103474.00;4354213;32;20642;-72
2021/12/18 04:16:00;;;;;;;4.25;4.05;;;;;;;5.80;100.00;103463.56;4363706;32;20086;-73
2021/12/18 04:18:25;;;;;;;3.50;3.40;;;;;;;5.66;100.00;103452.09;4353120;32;20440;-74
2021/12/18 04:20:51;;;;;;;3.40;3.30;;;;;;;5.22;100.00;103376.88;4368001;32;20606;-74
2021/12/18 04:23:16;;;;;;;3.75;3.65;;;;;;;5.05;100.00;103343.69;4351542;32;20069;-74
2021/12/18 04:25:41;;;;;;;3.35;3.15;;;;;;;5.84;100.00;103480.97;4371746;32;20097;-73
2021/12/18 04:28:07;;;;;;;3.33;3.22;;;;;;;5.30;100.00;103386.50;4352810;32;20078;-74
2021/12/18 04:30:33;;;;;;;4.15;3.95;;;;;;;5.84;100.00;103475.75;4366123;32;20497;-75
2021/12/18 04:32:58;;;;;;;3.40;3.30;;;;;;;5.83;100.00;103479.22;4350856;32;20073;-74
2021/12/18 04:35:23;;;;;;;4.35;4.15;;;;;;;5.76;100.00;103464.38;4358908;32;20377;-73
2021/12/18 04:37:49;;;;;;;3.97;3.78;;;;;;;5.85;100.00;103476.63;4346220;32;20137;-73
2021/12/18 04:40:14;;;;;;;3.70;3.60;;;;;;;5.74;100.00;103463.47;4355682;32;20556;-74
2021/12/18 04:42:39;;;;;;;3.10;3.00;;;;;;;5.84;100.00;103483.59;4352553;32;20297;-74
2021/12/18 04:45:05;;;;;;;5.62;5.40;;;;;;;5.85;100.00;103485.31;4353617;32;20567;-74
2021/12/18 04:47:31;;;;;;;3.35;3.25;;;;;;;5.74;100.00;103453.94;4354028;32;20156;-74
2021/12/18 04:49:56;;;;;;;3.92;3.78;;;;;;;5.51;100.00;103422.38;4347713;32;20683;-73
2021/12/18 04:52:23;;;;;;;3.40;3.30;;;;;;;5.74;100.00;103460.87;4347325;32;20089;-73
2021/12/18 04:54:48;;;;;;;3.22;3.12;;;;;;;4.47;100.00;103252.69;4354197;32;20062;-74
2021/12/18 04:57:14;;;;;;;3.45;3.35;;;;;;;5.77;100.00;103456.59;4361836;32;20622;-75
2021/12/18 04:59:43;;;;;;;3.25;3.15;;;;;;;5.30;100.00;103388.25;4355663;32;20054;-74
2021/12/18 05:02:09;;;;;;;5.07;4.87;;;;;;;5.95;100.00;103489.84;4343201;32;20085;-73
2021/12/18 05:04:35;;;;;;;3.50;3.40;;;;;;;5.71;100.00;103455.62;4344029;32;20521;-73
2021/12/18 05:07:00;;;;;;;5.00;4.75;;;;;;;5.89;100.00;103494.94;4347096;32;20148;-73
2021/12/18 05:09:25;;;;;;;3.20;3.10;;;;;;;5.25;100.00;103389.91;4350423;32;20112;-73
2021/12/18 05:11:51;;;;;;;3.30;3.20;;;;;;;5.82;100.00;103489.66;4354474;32;20069;-72
2021/12/18 05:14:17;;;;;;;3.37;3.28;;;;;;;5.82;100.00;103495.72;4348626;32;20569;-74
2021/12/18 05:16:42;;;;;;;3.37;3.28;;;;;;;5.72;100.00;103483.44;4356037;32;20520;-73
2021/12/18 05:19:07;;;;;;;5.60;5.28;;;;;;;5.71;100.00;103489.47;4348366;32;20084;-73
2021/12/18 05:21:33;;;;;;;3.42;3.33;;;;;;;5.71;100.00;103493.00;4352515;32;20492;-74
2021/12/18 05:23:58;;;;;;;4.55;4.35;;;;;;;5.71;100.00;103485.16;4354475;32;20568;-74
2021/12/18 05:26:23;;;;;;;4.05;3.85;;;;;;;5.71;100.00;103477.34;4345074;32;20379;-73
2021/12/18 05:28:49;;;;;;;3.55;3.45;;;;;;;5.48;100.00;103444.91;4356358;32;20068;-74
2021/12/18 05:31:17;;;;;;;3.70;3.60;;;;;;;5.13;100.00;103380.19;4346982;32;20132;-74
2021/12/18 05:33:44;;;;;;;3.60;3.50;;;;;;;5.68;100.00;103477.31;4355040;32;20070;-73
2021/12/18 05:36:29;;;;;;;6.40;6.10;;;;;;;5.31;100.00;103414.31;4346190;32;20135;-73
2021/12/18 05:38:55;;;;;;;3.90;3.75;;;;;;;5.67;100.00;103474.66;4352815;32;20070;-74
2021/12/18 05:41:20;;;;;;;4.35;3.95;;;;;;;5.32;100.00;103429.06;4366550;32;20116;-73
2021/12/18 05:43:45;;;;;;;3.30;3.20;;;;;;;5.67;100.00;103478.13;4351825;32;20256;-75
2021/12/18 05:46:11;;;;;;;5.18;4.87;;;;;;;5.65;100.00;103479.84;4351016;32;20307;-73
2021/12/18 05:48:36;;;;;;;4.00;3.80;;;;;;;5.29;100.00;103409.91;4349016;32;20074;-72
2021/12/18 05:51:05;;;;;;;5.22;4.93;;;;;;;5.14;100.00;103393.25;4367062;32;20591;-73
2021/12/18 05:53:30;;;;;;;4.03;3.83;;;;;;;5.26;100.00;103422.91;4359969;32;20081;-74
2021/12/18 05:55:55;;;;;;;4.62;4.43;;;;;;;5.42;100.00;103439.63;4366870;32;20070;-74
2021/12/18 05:58:21;;;;;;;4.85;4.43;;;;;;;5.30;100.00;103428.16;4357898;32;20164;-73
2021/12/18 06:00:46;;;;;;;3.92;3.72;;;;;;;5.45;100.00;103450.94;4347407;32;20073;-73
2021/12/18 06:03:12;;;;;;;4.10;3.90;;;;;;;5.62;100.00;103541.50;4354080;32;20577;-72
2021/12/18 06:05:37;;;;;;;3.30;3.20;;;;;;;5.62;100.00;103495.47;4349446;32;20093;-73
2021/12/18 06:08:05;;;;;;;4.93;4.72;;;;;;;5.59;100.00;103491.09;4345985;32;20066;-73
2021/12/18 06:10:33;;;;;;;3.62;3.53;;;;;;;5.58;100.00;103489.31;4350101;32;20117;-74
2021/12/18 06:13:00;;;;;;;4.95;4.75;;;;;;;4.46;100.00;103312.47;4347051;32;20351;-73
2021/12/18 06:15:25;;;;;;;3.20;3.10;;;;;;;5.54;100.00;103495.34;4347361;32;20144;-73
2021/12/18 06:17:53;;;;;;;3.30;3.20;;;;;;;4.97;100.00;103387.81;4366770;32;20078;-72
2021/12/18 06:20:18;;;;;;;3.50;3.40;;;;;;;5.54;100.00;103494.47;4344748;32;20078;-73
2021/12/18 06:22:43;;;;;;;3.85;3.65;;;;;;;5.09;100.00;103426.16;4363710;32;20080;-73
2021/12/18 06:25:09;;;;;;;6.12;5.72;;;;;;;5.12;100.00;103426.19;4332932;32;20663;-72
2021/12/18 06:27:34;;;;;;;3.60;3.50;;;;;;;4.83;100.00;103381.53;4358053;32;20108;-72
2021/12/18 06:30:01;;;;;;;4.82;4.62;;;;;;;5.10;100.00;103471.28;4363820;32;20074;-72
2021/12/18 06:32:27;;;;;;;3.40;3.30;;;;;;;5.35;100.00;103502.03;4344754;32;20086;-73
2021/12/18 06:34:52;;;;;;;3.35;3.25;;;;;;;4.66;100.00;103412.47;4346178;32;20667;-72
2021/12/18 06:37:17;;;;;;;5.65;5.28;;;;;;;5.26;100.00;103499.28;4346026;32;20078;-72
2021/12/18 06:39:43;;;;;;;3.35;3.25;;;;;;;4.17;100.00;103302.47;4335142;32;20110;-74
2021/12/18 06:42:08;;;;;;;5.37;5.10;;;;;;;5.28;100.00;103494.09;4356176;32;20592;-75
2021/12/18 06:44:33;;;;;;;4.35;4.15;;;;;;;3.88;100.00;103270.81;4334321;32;20435;-75
2021/12/18 06:46:59;;;;;;;4.40;4.20;;;;;;;4.64;100.00;103395.97;4363349;32;20185;-75
2021/12/18 06:49:24;;;;;;;7.80;3.65;;;;;;;4.24;100.00;103326.84;4346461;32;20552;-74
2021/12/18 06:51:49;;;;;;;4.18;3.97;;;;;;;5.14;100.00;103486.94;4360199;32;20454;-74
2021/12/18 06:54:15;;;;;;;3.42;3.33;;;;;;;5.30;100.00;103506.28;4341583;32;20070;-74
2021/12/18 06:56:40;;;;;;;3.15;3.05;;;;;;;5.08;100.00;103454.75;4345533;32;20074;-74
2021/12/18 06:59:05;;;;;;;4.65;4.45;;;;;;;4.37;100.00;103344.38;4345764;32;20073;-74
2021/12/18 07:01:31;;;;;;;3.50;3.40;;;;;;;5.35;100.00;103503.75;4344107;32;20128;-74
2021/12/18 07:03:56;;;;;;;4.78;4.57;;;;;;;5.20;100.00;103479.22;4344921;32;20074;-74
2021/12/18 07:06:21;;;;;;;3.40;3.30;;;;;;;5.36;100.00;103495.09;4356081;32;20086;-70
2021/12/18 07:08:47;;;;;;;5.55;3.60;;;;;;;5.00;100.00;103433.81;4331974;32;20066;-71
2021/12/18 07:11:12;;;;;;;4.20;4.00;;;;;;;5.36;100.00;103501.16;4344664;32;20078;-71
2021/12/18 07:13:38;;;;;;;4.07;3.65;;;;;;;5.35;100.00;103494.22;4332290;32;20078;-72
2021/12/18 07:16:03;;;;;;;4.82;4.62;;;;;;;5.38;100.00;103501.19;4342213;32;20077;-70
2021/12/18 07:18:30;;;;;;;4.10;3.90;;;;;;;5.09;100.00;103478.22;4361311;32;20225;-71
2021/12/18 07:20:56;;;;;;;4.60;4.43;;;;;;;5.34;100.00;103507.22;4344919;32;20085;-71
2021/12/18 07:23:21;;;;;;;6.30;3.40;;;;;;;5.34;100.00;103505.47;4345152;32;20162;-71
2021/12/18 07:25:47;;;;;;;3.30;3.20;;;;;;;5.34;100.00;103502.00;4345227;32;20081;-70
2021/12/18 07:28:12;;;;;;;4.15;3.95;;;;;;;5.35;100.00;103503.75;4355171;32;20140;-72
2021/12/18 07:30:37;;;;;;;3.40;3.30;;;;;;;5.36;100.00;103514.19;4346129;32;20074;-73
2021/12/18 07:33:09;;;;;;;3.90;3.65;;;;;;;5.35;100.00;103509.84;4344367;32;20071;-72
2021/12/18 07:35:35;;;;;;;4.45;4.25;;;;;;;5.37;100.00;103520.25;4332311;32;20135;-71
2021/12/18 07:38:00;;;;;;;4.75;4.55;;;;;;;5.13;100.00;103472.19;4329267;32;20844;-70
2021/12/18 07:40:26;;;;;;;3.83;3.62;;;;;;;5.10;100.00;103453.06;4331950;32;20093;-74
2021/12/18 07:42:51;;;;;;;4.05;3.85;;;;;;;5.20;100.00;103475.75;4358930;32;20080;-72
2021/12/18 07:45:17;;;;;;;3.33;3.22;;;;;;;5.40;100.00;103507.31;4357480;32;20161;-70
2021/12/18 07:47:42;;;;;;;3.87;3.70;;;;;;;5.33;100.00;103501.13;4357706;32;20493;-74
2021/12/18 07:50:12;;;;;;;4.85;4.65;;;;;;;5.38;100.00;103512.47;4348969;32;20126;-72
2021/12/18 07:52:37;;;;;;;3.42;3.33;;;;;;;5.34;100.00;103505.47;4343137;32;20680;-75
2021/12/18 07:55:03;;;;;;;5.03;4.82;;;;;;;5.35;100.00;103519.38;4345294;32;20078;-70
2021/12/18 07:57:29;;;;;;;3.47;3.37;;;;;;;5.37;100.00;103504.63;4361663;32;20075;-73
2021/12/18 07:59:54;;;;;;;4.15;3.95;;;;;;;4.53;100.00;103356.78;4354544;32;20081;-74
2021/12/18 08:02:19;;;;;;;4.03;3.83;;;;;;;5.41;100.00;103503.84;4357807;32;20462;-71
2021/12/18 08:04:45;;;;;;;3.50;3.40;;;;;;;5.42;100.00;103505.59;4346119;32;20066;-71
2021/12/18 08:07:10;;;;;;;5.22;4.93;;;;;;;5.44;100.00;103496.06;4354070;32;21068;-73
2021/12/18 08:09:35;;;;;;;3.40;3.30;;;;;;;5.44;100.00;103498.69;4346640;32;20069;-72
2021/12/18 08:12:01;;;;;;;5.32;5.12;;;;;;;5.46;100.00;103501.31;4359728;32;20078;-69
2021/12/18 08:14:26;;;;;;;3.50;3.40;;;;;;;5.34;100.00;103476.84;4348043;32;20089;-68
2021/12/18 08:16:52;;;;;;;3.90;3.75;;;;;;;5.45;100.00;103497.81;4345108;32;20520;-68
2021/12/18 08:19:17;;;;;;;3.53;3.42;;;;;;;5.10;100.00;103434.84;4362798;32;20074;-68
2021/12/18 08:21:42;;;;;;;4.70;4.30;;;;;;;5.50;100.00;103496.16;4349047;32;20097;-68
2021/12/18 08:24:08;;;;;;;5.25;5.05;;;;;;;5.40;100.00;103494.28;4349392;32;20634;-68
2021/12/18 08:26:33;;;;;;;4.10;3.90;;;;;;;5.09;100.00;103448.69;4351192;32;20071;-67
2021/12/18 08:28:58;;;;;;;4.30;4.10;;;;;;;5.48;100.00;103507.41;4340966;32;20268;-68
2021/12/18 08:31:24;;;;;;;3.30;3.20;;;;;;;5.43;100.00;103491.72;4347801;32;20087;-68
2021/12/18 08:33:49;;;;;;;4.72;3.75;;;;;;;5.49;100.00;103491.81;4350767;32;20081;-69
2021/12/18 08:36:14;;;;;;;3.37;3.28;;;;;;;5.53;100.00;103498.81;4342912;32;20169;-68
2021/12/18 08:38:40;;;;;;;3.75;3.65;;;;;;;5.49;100.00;103494.44;4347967;32;20084;-69
2021/12/18 08:41:05;;;;;;;4.82;4.62;;;;;;;5.53;100.00;103496.22;4348239;32;20069;-68
2021/12/18 08:43:31;;;;;;;3.50;3.40;;;;;;;5.55;100.00;103502.31;4349796;32;20462;-69
2021/12/18 08:45:56;;;;;;;4.20;4.00;;;;;;;5.60;100.00;103499.78;4336594;32;20931;-68
2021/12/18 08:48:22;;;;;;;3.60;3.50;;;;;;;4.54;100.00;103310.84;4347082;32;20088;-73
2021/12/18 08:50:47;;;;;;;4.30;4.10;;;;;;;5.63;100.00;103499.78;4339919;32;20085;-72
2021/12/18 08:53:12;;;;;;;3.40;3.30;;;;;;;5.66;100.00;103501.59;4360761;32;20108;-71
2021/12/18 08:55:38;;;;;;;3.70;3.60;;;;;;;5.72;100.00;103496.47;4338625;32;20078;-70
2021/12/18 08:58:03;;;;;;;4.78;4.57;;;;;;;5.75;100.00;103493.87;4350119;32;20454;-67
2021/12/18 09:00:30;;;;;;;3.70;3.50;;;;;;;5.73;100.00;103482.56;4351419;32;20179;-70
2021/12/18 09:02:57;;;;;;;4.20;4.03;;;;;;;4.89;100.00;103333.88;4352283;32;20073;-67
2021/12/18 09:05:23;;;;;;;3.80;3.60;;;;;;;5.52;100.00;103450.16;4351871;32;20075;-68
2021/12/18 09:07:49;;;;;;;3.90;3.72;;;;;;;5.74;100.00;103493.00;4360599;32;20643;-67
2021/12/18 09:10:15;;;;;;;4.15;3.95;;;;;;;5.78;100.00;103491.31;4361910;32;20074;-67
2021/12/18 09:12:40;;;;;;;4.03;3.83;;;;;;;4.88;100.00;103334.75;4360566;32;20065;-72
2021/12/18 09:15:06;;;;;;;5.10;4.90;;;;;;;5.86;100.00;103496.63;4366204;32;20120;-72
2021/12/18 09:17:31;;;;;;;4.10;3.90;;;;;;;5.67;100.00;103456.44;4372330;32;20202;-72
2021/12/18 09:19:57;;;;;;;3.47;3.37;;;;;;;5.15;100.00;103379.37;4341958;32;20074;-73
2021/12/18 09:22:22;;;;;;;3.60;3.50;;;;;;;5.91;100.00;103505.38;4359921;32;20634;-73
2021/12/18 09:24:47;;;;;;;3.40;3.30;;;;;;;5.82;100.00;103505.28;4338398;32;20077;-71
2021/12/18 09:27:15;;;;;;;4.32;4.12;;;;;;;5.79;100.00;103498.28;4351856;32;20081;-71
2021/12/18 09:29:40;;;;;;;3.33;3.22;;;;;;;5.87;100.00;103504.44;4349688;32;20591;-71
2021/12/18 09:32:06;;;;;;;4.00;3.80;;;;;;;5.67;100.00;103480.75;4358307;32;20142;-72
2021/12/18 09:34:33;;;;;;;3.58;3.37;;;;;;;5.99;100.00;103496.84;4343245;32;20168;-72
2021/12/18 09:36:58;;;;;;;4.90;4.70;;;;;;;5.91;100.00;103475.00;4354153;32;20093;-69
2021/12/18 09:39:24;;;;;;;3.70;3.60;;;;;;;6.08;100.00;103500.41;4355202;32;20092;-71
2021/12/18 09:41:50;;;;;;;4.00;3.80;;;;;;;5.82;100.00;103445.34;4335010;32;20093;-75
2021/12/18 09:44:25;;;;;;;4.12;3.92;;;;;;;6.15;100.00;103508.34;4353726;32;20185;-72
2021/12/18 09:46:51;;;;;;;3.97;3.78;;;;;;;6.13;100.00;103502.22;4364554;32;20085;-73
2021/12/18 09:49:16;;;;;;;4.68;4.35;;;;;;;6.26;100.00;103504.97;4352923;32;20561;-73
2021/12/18 09:51:42;;;;;;;4.18;3.97;;;;;;;6.29;100.00;103505.84;4344013;32;20677;-73
2021/12/18 09:54:07;;;;;;;4.97;4.78;;;;;;;5.35;100.00;103332.78;4343122;32;20122;-72
2021/12/18 09:56:32;;;;;;;3.65;3.55;;;;;;;6.36;100.00;103492.03;4347039;32;20681;-72
2021/12/18 09:58:58;;;;;;;5.70;5.40;;;;;;;6.40;100.00;103498.16;4351468;32;20136;-70
2021/12/18 10:01:23;;;;;;;4.03;3.85;;;;;;;6.46;100.00;103502.56;4355990;32;20581;-73
2021/12/18 10:03:58;;;;;;;4.18;3.97;;;;;;;6.47;100.00;103491.25;4339789;32;20073;-69
2021/12/18 10:06:37;;;;;;;4.80;4.60;;;;;;;6.47;100.00;103489.53;4348388;32;20081;-70
2021/12/18 10:09:17;;;;;;;4.18;3.97;;;;;;;6.47;100.00;103486.03;4364199;32;20094;-71
2021/12/18 10:11:50;;;;;;;3.67;3.58;;;;;;;6.52;100.00;103487.84;4357477;32;20072;-72
2021/12/18 10:14:16;;;;;;;3.60;3.50;;;;;;;6.48;100.00;103485.19;4349016;32;20137;-72
2021/12/18 10:16:44;;;;;;;4.10;3.90;;;;;;;6.53;100.00;103479.12;4347796;32;20069;-69
2021/12/18 10:19:26;;;;;;;4.90;4.70;;;;;;;6.56;100.00;103479.19;4348376;32;20081;-69
2021/12/18 10:22:02;;;;;;;3.97;3.78;;;;;;;6.55;100.00;103482.62;4360548;32;20771;-69
2021/12/18 10:24:27;;;;;;;4.55;4.25;;;;;;;6.47;100.00;103462.56;4358678;32;20084;-69
2021/12/18 10:26:53;;;;;;;4.43;4.12;;;;;;;6.57;100.00;103467.91;4342050;32;20200;-69
2021/12/18 10:29:44;;;;;;;3.90;3.70;;;;;;;6.61;100.00;103467.91;4362118;32;20097;-70
2021/12/18 10:32:11;;;;;;;5.70;5.40;;;;;;;6.64;100.00;103468.81;4363512;32;20066;-70
2021/12/18 10:34:38;;;;;;;3.83;3.67;;;;;;;6.66;100.00;103463.63;4348975;32;20132;-70
2021/12/18 10:37:23;;;;;;;3.70;3.55;;;;;;;6.65;100.00;103461.84;4349337;32;20169;-73
2021/12/18 10:39:53;;;;;;;3.97;3.78;;;;;;;6.72;100.00;103458.47;4359855;32;20069;-73
2021/12/18 10:42:28;;;;;;;3.60;3.50;;;;;;;6.74;100.00;103468.03;4364692;32;20078;-73
2021/12/18 10:45:03;;;;;;;4.40;4.10;;;;;;;6.70;100.00;103462.78;4361466;32;20112;-74
2021/12/18 10:47:46;;;;;;;3.80;3.55;;;;;;;6.68;100.00;103454.94;4362489;32;20076;-73
2021/12/18 10:50:18;;;;;;;4.55;4.35;;;;;;;6.73;100.00;103449.75;4351003;32;20543;-73
2021/12/18 10:52:43;;;;;;;3.83;3.67;;;;;;;6.54;100.00;103401.78;4353352;32;20101;-74
2021/12/18 10:55:08;;;;;;;5.35;5.15;;;;;;;6.84;100.00;103442.03;4351079;32;20065;-73
2021/12/18 10:57:34;;;;;;;3.80;3.60;;;;;;;6.84;100.00;103440.28;4349942;32;20699;-73
2021/12/18 10:59:59;;;;;;;6.00;5.70;;;;;;;6.91;100.00;103446.41;4349448;32;20354;-73
2021/12/18 11:02:26;;;;;;;4.05;3.85;;;;;;;6.93;100.00;103437.72;4350560;32;20132;-73
2021/12/18 11:04:52;;;;;;;4.68;4.37;;;;;;;6.97;100.00;103456.91;4365539;32;20073;-74
2021/12/18 11:07:30;;;;;;;4.20;4.00;;;;;;;6.92;100.00;103441.22;4349246;32;20066;-73
2021/12/18 11:10:12;;;;;;;4.28;4.10;;;;;;;6.94;100.00;103438.62;4367239;32;20106;-69
2021/12/18 11:15:21;;;;;;;3.45;3.35;;;;;;;6.84;100.00;103439.41;4366452;32;20510;-74
2021/12/18 11:17:46;;;;;;;4.43;4.22;;;;;;;6.71;100.00;103433.19;4356284;32;20085;-73
2021/12/18 11:20:12;;;;;;;4.50;4.30;;;;;;;6.75;100.00;103430.63;4350505;32;20623;-73
2021/12/18 11:22:37;;;;;;;4.37;4.18;;;;;;;6.81;100.00;103427.19;4353855;32;20138;-74
2021/12/18 11:25:05;;;;;;;4.97;4.78;;;;;;;6.76;100.00;103423.69;4336777;32;20567;-72
2021/12/18 11:27:32;;;;;;;3.70;3.60;;;;;;;6.81;100.00;103423.72;4351946;32;20084;-74
2021/12/18 11:30:11;;;;;;;5.00;4.80;;;;;;;6.87;100.00;103413.31;4336038;32;20407;-73
2021/12/18 11:32:42;;;;;;;3.50;3.40;;;;;;;6.96;100.00;103416.87;4353733;32;20133;-74
2021/12/18 11:35:19;;;;;;;5.78;5.47;;;;;;;6.95;100.00;103411.62;4335215;32;20571;-74
2021/12/18 11:37:54;;;;;;;4.03;3.83;;;;;;;6.99;100.00;103405.56;4360631;32;20164;-74
2021/12/18 11:40:22;;;;;;;3.80;3.70;;;;;;;7.04;100.00;103405.63;4351152;32;20108;-74
2021/12/18 11:42:47;;;;;;;4.28;4.07;;;;;;;6.91;100.00;103382.00;4351553;32;20487;-74
2021/12/18 11:45:13;;;;;;;4.00;3.80;;;;;;;7.05;100.00;103396.91;4355931;32;20077;-73
2021/12/18 11:47:43;;;;;;;4.32;4.10;;;;;;;6.87;100.00;103410.69;4342124;32;20081;-74
2021/12/18 11:50:26;;;;;;;5.68;5.40;;;;;;;7.01;100.00;103398.59;4336722;32;20336;-74
2021/12/18 11:53:05;;;;;;;3.65;3.55;;;;;;;7.02;100.00;103404.72;4359762;32;20477;-74
2021/12/18 11:55:49;;;;;;;3.62;3.53;;;;;;;6.96;100.00;103401.19;4354690;32;20081;-73
2021/12/18 11:58:25;;;;;;;3.85;3.65;;;;;;;6.92;100.00;103399.44;4360079;32;21338;-73
2021/12/18 12:00:52;;;;;;;6.85;4.22;;;;;;;6.93;100.00;103395.94;4349053;32;20061;-73
2021/12/18 12:03:43;;;;;;;3.90;3.70;;;;;;;6.97;100.00;103397.72;4353848;32;20093;-73
2021/12/18 12:06:24;;;;;;;5.53;5.32;;;;;;;6.98;100.00;103389.03;4339428;32;21401;-73
2021/12/18 12:09:02;;;;;;;4.47;4.28;;;;;;;6.14;100.00;103242.38;4365632;32;20074;-73